sensor_id;sensor_type;location;lat;lon;timestamp;pressure;altitude;pressure_sealevel;temperature;humidity
71642;BME280;60657;50.122;14.468;2024-02-15T00:01:33;98679.59888216876;;;10.270466163118947;74.302510109102
71642;BME280;60657;50.122;14.468;2024-02-15T00:04:39;98679.59049920533;;;10.211718928816666;74.62104219119554
71642;BME280;60657;50.122;14.468;2024-02-15T00:07:45;98677.09245849507;;;10.19035629816129;74.9224078736553
71642;BME280;60657;50.122;14.468;2024-02-15T00:10:51;98678.7145796053;;;10.099565117875947;75.29816128786145
71642;BME280;60657;50.122;14.468;2024-02-15T00:13:56;98685.35876353379;;;10.12359807736324;75.62623025864042
71642;BME280;60657;50.122;14.468;2024-02-15T00:17:02;98679.54730785401;;;10.142290379186697;75.85320820935378
71642;BME280;60657;50.122;14.468;2024-02-15T00:20:08;98685.33150284474;;;10.04615854123751;76.31479362172885
71642;BME280;60657;50.122;14.468;2024-02-15T00:23:15;98678.65047669965;;;10.094224460212104;76.71152819104296
71642;BME280;60657;50.122;14.468;2024-02-15T00:26:21;98677.82711196857;;;10.030136568245979;77.3237964446479
71642;BME280;60657;50.122;14.468;2024-02-15T00:29:27;98678.64097895073;;;9.97138933394369;77.55268177309834
71642;BME280;60657;50.122;14.468;2024-02-15T00:32:33;98673.65381611885;;;9.93667505912871;77.9570458533608
71642;BME280;60657;50.122;14.468;2024-02-15T00:35:39;98670.31319916715;;;9.931334401464866;78.05622949568932
71642;BME280;60657;50.122;14.468;2024-02-15T00:38:45;98676.89620898223;;;9.875257495994504;78.43007553215838
71642;BME280;60657;50.122;14.468;2024-02-15T00:41:51;98666.08988684909;;;9.829861905851836;78.91836423285267
71642;BME280;60657;50.122;14.468;2024-02-15T00:44:56;98671.90936636753;;;9.803158617532617;79.25787747005417
71642;BME280;60657;50.122;14.468;2024-02-15T00:48:03;98662.72771093523;;;9.685664148928055;79.56115053025101
71642;BME280;60657;50.122;14.468;2024-02-15T00:51:10;98661.89490889646;;;9.69901579308766;79.91401541161211
71642;BME280;60657;50.122;14.468;2024-02-15T00:54:16;98656.03339070265;;;9.653620202944992;80.46906233310445
71642;BME280;60657;50.122;14.468;2024-02-15T00:57:21;98657.69899795612;;;9.69901579308766;80.55298695353628
71642;BME280;60657;50.122;14.468;2024-02-15T01:00:28;98663.49620585983;;;9.66430151827268;80.7265583276112
71642;BME280;60657;50.122;14.468;2024-02-15T01:03:34;98658.5425360743;;;9.69901579308766;80.83718623636224
71642;BME280;60657;50.122;14.468;2024-02-15T01:06:41;98659.39652564921;;;9.74174105439841;80.77233539330129
71642;BME280;60657;50.122;14.468;2024-02-15T01:09:46;98649.3926801765;;;9.645609216449223;80.97261005569543
71642;BME280;60657;50.122;14.468;2024-02-15T01:12:52;98648.57059474061;;;9.68299382009613;81.09277485313191
71642;BME280;60657;50.122;14.468;2024-02-15T01:15:58;98651.8694393221;;;9.589532310978868;81.37315938048371
71642;BME280;60657;50.122;14.468;2024-02-15T01:19:08;98650.19298396446;;;9.608224612802317;81.60395208667124
71642;BME280;60657;50.122;14.468;2024-02-15T01:22:14;98646.0400676301;;;9.618905928130005;81.72602426184481
71642;BME280;60657;50.122;14.468;2024-02-15T01:25:21;98650.18199756795;;;9.629587243457692;81.97398336766614
71642;BME280;60657;50.122;14.468;2024-02-15T01:28:27;98639.3781575365;;;9.602883955138473;82.26581216144045
71642;BME280;60657;50.122;14.468;2024-02-15T01:31:33;98636.89096129287;;;9.592202639810786;82.4355687800412
71642;BME280;60657;50.122;14.468;2024-02-15T01:34:39;98634.40376718137;;;9.600213626306555;82.4203097581445
71642;BME280;60657;50.122;14.468;2024-02-15T01:37:45;98640.21088293812;;;9.57885099565118;82.57480735484856
71642;BME280;60657;50.122;14.468;2024-02-15T01:40:51;98631.87270620676;;;9.560158693827724;82.71404592965591
71642;BME280;60657;50.122;14.468;2024-02-15T01:43:57;98626.12022395968;;;9.616235599298086;82.82467383840695
71642;BME280;60657;50.122;14.468;2024-02-15T01:47:03;98633.59264600402;;;9.594872968642711;82.87045090409704
71642;BME280;60657;50.122;14.468;2024-02-15T01:50:10;98622.7575152491;;;9.5201037613489;83.15274280918594
71642;BME280;60657;50.122;14.468;2024-02-15T01:53:19;98625.25539486825;;;9.538796063172349;83.18516823071641
71642;BME280;60657;50.122;14.468;2024-02-15T01:56:25;98616.99346810034;;;9.594872968642711;83.16990920881972
71642;BME280;60657;50.122;14.468;2024-02-15T01:59:33;98612.85161903517;;;9.64026855878538;83.06500343327993
71642;BME280;60657;50.122;14.468;2024-02-15T02:02:41;98617.82601146447;;;9.616235599298086;83.18326085297933
71642;BME280;60657;50.122;14.468;2024-02-15T02:05:48;98611.19691252099;;;9.602883955138473;83.29198138399329
71642;BME280;60657;50.122;14.468;2024-02-15T02:08:54;98607.91736921082;;;9.64026855878538;83.11841000991836
71642;BME280;60657;50.122;14.468;2024-02-15T02:12:00;98617.87713777628;;;9.65629053177691;83.25001907377737
71642;BME280;60657;50.122;14.468;2024-02-15T02:15:07;98621.20717377156;;;9.688334477759973;83.3205920500496
71642;BME280;60657;50.122;14.468;2024-02-15T02:18:15;98615.39955978429;;;9.701686121919586;83.29579613946746
71642;BME280;60657;50.122;14.468;2024-02-15T02:21:21;98600.46475243059;;;9.666971847104598;83.52849622339208
71642;BME280;60657;50.122;14.468;2024-02-15T02:24:27;98602.93273637276;;;9.624246585793848;83.68108644235905
71642;BME280;60657;50.122;14.468;2024-02-15T02:27:35;98599.6227401277;;;9.629587243457692;83.81651026169223
71642;BME280;60657;50.122;14.468;2024-02-15T02:33:48;98600.44537624516;;;9.613565270466161;84.13122758831159
71642;BME280;60657;50.122;14.468;2024-02-15T02:36:57;98610.4047942835;;;9.669642175936524;84.10833905546654
71642;BME280;60657;50.122;14.468;2024-02-15T02:40:03;98603.78461156934;;;9.70702677958343;84.0282291905089
71642;BME280;60657;50.122;14.468;2024-02-15T02:43:10;98613.73462269532;;;9.650949874113067;84.09689478904403
71642;BME280;60657;50.122;14.468;2024-02-15T02:46:16;98611.25690285754;;;9.674982833600367;84.14076447699702
71642;BME280;60657;50.122;14.468;2024-02-15T02:49:22;98617.89699401779;;;9.70702677958343;84.0701915007248
71642;BME280;60657;50.122;14.468;2024-02-15T02:52:29;98623.7244740059;;;9.74975204089418;83.94239719233997
71642;BME280;60657;50.122;14.468;2024-02-15T02:55:35;98617.1220954429;;;9.74174105439841;83.98245212481879
71642;BME280;60657;50.122;14.468;2024-02-15T02:58:41;98621.26551245444;;;9.797817959868773;83.93095292591745
71642;BME280;60657;50.122;14.468;2024-02-15T03:01:47;98619.60059233804;;;9.752422369726098;84.12359807736324
71642;BME280;60657;50.122;14.468;2024-02-15T03:04:53;98618.73927168173;;;9.701686121919586;84.23613336385138
71642;BME280;60657;50.122;14.468;2024-02-15T03:07:59;98622.91137649796;;;9.768444342717629;84.29716945143817
71642;BME280;60657;50.122;14.468;2024-02-15T03:11:05;98630.38467983414;;;9.773785000381473;84.43259327077135
71642;BME280;60657;50.122;14.468;2024-02-15T03:14:11;98619.57175240772;;;9.74174105439841;84.61188677805752
71642;BME280;60657;50.122;14.468;2024-02-15T03:17:17;98617.9356874627;;;9.72571908140688;84.6462195773251
71642;BME280;60657;50.122;14.468;2024-02-15T03:20:23;98616.28967012653;;;9.733730067902648;84.78545815213245
71642;BME280;60657;50.122;14.468;2024-02-15T03:23:30;98617.95452456892;;;9.779125658045317;84.84840161745632
71642;BME280;60657;50.122;14.468;2024-02-15T03:26:36;98620.4330504912;;;9.763103685053785;84.93041886015106
71642;BME280;60657;50.122;14.468;2024-02-15T03:29:42;98616.28967012653;;;9.811169604028379;84.82932784008545
71642;BME280;60657;50.122;14.468;2024-02-15T03:32:48;98611.30455975745;;;9.800488288700691;84.91897459372854
71642;BME280;60657;50.122;14.468;2024-02-15T03:35:54;98613.7734919626;;;9.752422369726098;84.91134508278019
71642;BME280;60657;50.122;14.468;2024-02-15T03:39:00;98614.62483092326;;;9.755092698558023;85.15930418860151
71642;BME280;60657;50.122;14.468;2024-02-15T03:42:06;98620.41392639648;;;9.680323491264211;85.46829938200962
71642;BME280;60657;50.122;14.468;2024-02-15T03:45:12;98622.08847624544;;;9.78446631570916;85.24704356450752
71642;BME280;60657;50.122;14.468;2024-02-15T03:48:18;98631.23645784108;;;9.776455329213398;85.21461814297703
71642;BME280;60657;50.122;14.468;2024-02-15T03:51:24;98623.78163510594;;;9.829861905851836;85.13832303349355
71642;BME280;60657;50.122;14.468;2024-02-15T03:54:30;98630.44141849774;;;9.840543221179523;85.08110170138094
71642;BME280;60657;50.122;14.468;2024-02-15T03:57:38;98622.96757097004;;;9.864576180666816;84.99145494773785
71642;BME280;60657;50.122;14.468;2024-02-15T04:00:45;98625.45577000277;;;9.83520256351568;85.06584267948425
71642;BME280;60657;50.122;14.468;2024-02-15T04:03:51;98627.12979992497;;;9.853894865339129;85.14404516670481
71642;BME280;60657;50.122;14.468;2024-02-15T04:06:57;98620.48838388316;;;9.83520256351568;85.02578774700542
71642;BME280;60657;50.122;14.468;2024-02-15T04:10:07;98627.14776356822;;;9.885938811322191;84.91515983825437
71642;BME280;60657;50.122;14.468;2024-02-15T04:13:13;98632.95708032748;;;9.917982757305253;84.91134508278019
71642;BME280;60657;50.122;14.468;2024-02-15T04:16:19;98634.62205183513;;;9.917982757305253;84.92088197146563
71642;BME280;60657;50.122;14.468;2024-02-15T04:19:25;98628.82148324343;;;9.944686045624472;84.90753032730602
71642;BME280;60657;50.122;14.468;2024-02-15T04:22:31;98627.14776356822;;;9.883268482490273;85.00480659189746
71642;BME280;60657;50.122;14.468;2024-02-15T04:25:38;98623.02926470114;;;9.950026703288316;84.93804837109941
71642;BME280;60657;50.122;14.468;2024-02-15T04:28:44;98618.8843892842;;;9.891279468986035;84.84649423971923
71642;BME280;60657;50.122;14.468;2024-02-15T04:31:50;98613.01479617778;;;9.821850919356066;85.29854276340886
71642;BME280;60657;50.122;14.468;2024-02-15T04:34:56;98612.20004366228;;;9.885938811322191;85.22796978713664
71642;BME280;60657;50.122;14.468;2024-02-15T04:38:03;98613.03237949658;;;9.907301441977566;85.15739681086443
71642;BME280;60657;50.122;14.468;2024-02-15T04:41:09;98623.80000914713;;;9.861905851834898;85.22796978713664
71642;BME280;60657;50.122;14.468;2024-02-15T04:44:15;98628.80372484696;;;9.915312428473335;85.40726329442283
71642;BME280;60657;50.122;14.468;2024-02-15T04:47:21;98633.8161705825;;;9.944686045624472;85.27565423056382
71642;BME280;60657;50.122;14.468;2024-02-15T04:50:27;98632.99242077676;;;9.947356374456398;85.47592889295797
71642;BME280;60657;50.122;14.468;2024-02-15T04:53:34;98635.48977791923;;;10.006103608758679;85.26802471961547
71642;BME280;60657;50.122;14.468;2024-02-15T04:56:40;98631.34473043497;;;9.958037689784085;85.28709849698635
71642;BME280;60657;50.122;14.468;2024-02-15T04:59:46;98634.63985681406;;;9.896620126649879;85.54650186923018
71642;BME280;60657;50.122;14.468;2024-02-15T05:02:52;98637.13728970317;;;9.899290455481804;85.58846417944609
71642;BME280;60657;50.122;14.468;2024-02-15T05:05:59;98634.65732173577;;;9.944686045624472;85.58846417944609
71642;BME280;60657;50.122;14.468;2024-02-15T05:09:05;98636.32223790516;;;9.93667505912871;85.65712977798123
71642;BME280;60657;50.122;14.468;2024-02-15T05:12:11;98631.30999954871;;;9.966048676279847;85.49881742580301
71642;BME280;60657;50.122;14.468;2024-02-15T05:15:28;98626.35027032765;;;9.95536736095216;85.84405279621576
71642;BME280;60657;50.122;14.468;2024-02-15T05:18:34;98629.69678577305;;;9.944686045624472;85.82688639658198
71642;BME280;60657;50.122;14.468;2024-02-15T05:21:40;98628.03200103519;;;9.928664072632941;85.87266346227207
71642;BME280;60657;50.122;14.468;2024-02-15T05:24:46;98628.04858677535;;;9.995422293430991;85.80590524147402
71642;BME280;60657;50.122;14.468;2024-02-15T05:27:52;98638.84506793674;;;10.067521171892885;85.56939040207523
71642;BME280;60657;50.122;14.468;2024-02-15T05:31:17;98631.36988579518;;;10.051499198901354;85.5751125352865
71642;BME280;60657;50.122;14.468;2024-02-15T05:34:24;98632.99242077676;;;9.966048676279847;85.99664301518273
71642;BME280;60657;50.122;14.468;2024-02-15T05:37:30;98637.9871692837;;;9.982070649271378;85.86503395132372
71642;BME280;60657;50.122;14.468;2024-02-15T05:40:36;98628.86439150335;;;10.008773937590604;85.88029297322042
71642;BME280;60657;50.122;14.468;2024-02-15T05:43:42;98633.00958088972;;;9.995422293430991;85.9546807049668
71642;BME280;60657;50.122;14.468;2024-02-15T05:46:48;98637.97851462563;;;9.995422293430991;85.86694132906081
71642;BME280;60657;50.122;14.468;2024-02-15T05:49:54;98636.33082518044;;;9.992751964599066;85.84786755168993
71642;BME280;60657;50.122;14.468;2024-02-15T05:53:01;98647.94237169015;;;10.02212558175021;85.95277332722972
71642;BME280;60657;50.122;14.468;2024-02-15T05:56:09;98642.12347756665;;;9.990081635767147;85.88792248416877
71642;BME280;60657;50.122;14.468;2024-02-15T05:59:15;98637.9871692837;;;9.995422293430991;85.94895857175555
71642;BME280;60657;50.122;14.468;2024-02-15T06:02:21;98641.31707766268;;;10.00343327992676;85.94895857175555
71642;BME280;60657;50.122;14.468;2024-02-15T06:05:27;98651.29005582734;;;10.06485084306096;85.81353475242237
71642;BME280;60657;50.122;14.468;2024-02-15T06:08:33;98652.1311953153;;;10.024795910582135;85.9851987487602
71642;BME280;60657;50.122;14.468;2024-02-15T06:11:39;98648.78371904003;;;10.043488212405585;85.99282825970855
71642;BME280;60657;50.122;14.468;2024-02-15T06:14:45;98654.58517506348;;;9.95536736095216;86.33424887464713
71642;BME280;60657;50.122;14.468;2024-02-15T06:17:52;98655.42666994568;;;9.966048676279847;86.14541847867552
71642;BME280;60657;50.122;14.468;2024-02-15T06:20:59;98659.58083438876;;;9.960708018616003;86.37239642938887
71642;BME280;60657;50.122;14.468;2024-02-15T06:24:05;98652.97223587657;;;10.078202487220572;86.23315785458152
71642;BME280;60657;50.122;14.468;2024-02-15T06:27:11;98658.7831414135;;;10.08087281605249;86.07293812466621
71642;BME280;60657;50.122;14.468;2024-02-15T06:30:17;98658.82488533173;;;10.163653009842072;85.85931181811246
71642;BME280;60657;50.122;14.468;2024-02-15T06:33:23;98655.52676881012;;;10.185015640497447;85.59800106813154
71642;BME280;60657;50.122;14.468;2024-02-15T06:36:29;98656.35925809434;;;10.23308155947204;85.67238879987792
71642;BME280;60657;50.122;14.468;2024-02-15T06:39:35;98658.87216968261;;;10.25978484779126;85.54077973601892
71642;BME280;60657;50.122;14.468;2024-02-15T06:42:42;98681.28071907938;;;10.25978484779126;85.56176089112688
71642;BME280;60657;50.122;14.468;2024-02-15T06:45:50;98677.96628705296;;;10.214389257648584;85.49500267032883
71642;BME280;60657;50.122;14.468;2024-02-15T06:48:56;98679.65517931161;;;10.374608987563896;85.5293354695964
71642;BME280;60657;50.122;14.468;2024-02-15T06:52:02;98682.19781552817;;;10.409323262378884;85.21271076523995
71642;BME280;60657;50.122;14.468;2024-02-15T06:55:09;98679.70730366389;;;10.39597161821927;85.13641565575647
71642;BME280;60657;50.122;14.468;2024-02-15T06:58:15;98677.21679393735;;;10.39597161821927;85.1306935225452
71642;BME280;60657;50.122;14.468;2024-02-15T07:01:23;98680.5539667407;;;10.48142214084077;85.13832303349355
71642;BME280;60657;50.122;14.468;2024-02-15T07:04:29;98675.62476114223;;;10.596246280613414;85.09445334554056
71642;BME280;60657;50.122;14.468;2024-02-15T07:07:36;98676.48115193757;;;10.69504844739452;84.6614785992218
71642;BME280;60657;50.122;14.468;2024-02-15T07:10:42;98674.86545188111;;;10.756466010528726;84.38109407187
71642;BME280;60657;50.122;14.468;2024-02-15T07:13:48;98676.53508437946;;;10.823224231326769;84.39253833829251
71642;BME280;60657;50.122;14.468;2024-02-15T07:16:55;98679.88338103528;;;10.8632791638056;84.0282291905089
71642;BME280;60657;50.122;14.468;2024-02-15T07:20:01;98680.73750363573;;;10.964751659418631;83.82223239490348
71642;BME280;60657;50.122;14.468;2024-02-15T07:23:09;98682.40200099214;;;10.986114290074006;83.67727168688486
71642;BME280;60657;50.122;14.468;2024-02-15T07:26:16;98688.22786035461;;;11.002136263065537;83.73449301899748
71642;BME280;60657;50.122;14.468;2024-02-15T07:29:23;98694.06175386024;;;11.084916456855119;83.64103150988022
71642;BME280;60657;50.122;14.468;2024-02-15T07:32:31;98696.55083656713;;;11.071564812695506;83.62195773250934
71642;BME280;60657;50.122;14.468;2024-02-15T07:35:37;98693.23699425906;;;11.1196307316701;83.82413977264058
71642;BME280;60657;50.122;14.468;2024-02-15T07:38:43;98699.89880206941;;;11.17837796597238;83.44075684748607
71642;BME280;60657;50.122;14.468;2024-02-15T07:41:50;98689.94082051092;;;11.253147173266193;83.49225604638742
71642;BME280;60657;50.122;14.468;2024-02-15T07:44:57;98682.47451323549;;;11.354619668879224;83.41405355916686
71642;BME280;60657;50.122;14.468;2024-02-15T07:48:04;98683.31629325212;;;11.442740520332649;82.79797055008774
71642;BME280;60657;50.122;14.468;2024-02-15T07:51:10;98680.00257667169;;;11.570916304264898;82.73693446250095
71642;BME280;60657;50.122;14.468;2024-02-15T07:54:17;98683.3337530923;;;11.74982833600366;82.60723277637904
71642;BME280;60657;50.122;14.468;2024-02-15T07:57:23;98685.82650059563;;;11.869993133440147;81.89768825818265
71642;BME280;60657;50.122;14.468;2024-02-15T08:00:30;98680.82812704389;;;11.94476234073396;81.73365377279316
71642;BME280;60657;50.122;14.468;2024-02-15T08:03:36;98681.66108933445;;;11.896696421759366;81.48378728923475
71642;BME280;60657;50.122;14.468;2024-02-15T08:06:42;98685.82079439072;;;11.947432669565877;81.46662088960097
71642;BME280;60657;50.122;14.468;2024-02-15T08:09:48;98684.98510293673;;;11.992828259708553;81.26825360494392
71642;BME280;60657;50.122;14.468;2024-02-15T08:12:55;98680.81272049258;;;12.080949111161978;81.17669947356374
71642;BME280;60657;50.122;14.468;2024-02-15T08:16:01;98667.48943562979;;;12.115663385976958;80.95735103379873
71642;BME280;60657;50.122;14.468;2024-02-15T08:19:07;98676.65876596197;;;12.006179903868166;80.98023956664377
71642;BME280;60657;50.122;14.468;2024-02-15T08:22:14;98679.97448185827;;;12.118333714808884;81.18242160677501
71642;BME280;60657;50.122;14.468;2024-02-15T08:25:20;98676.6482876798;;;12.059586480506603;80.92683299000534
71642;BME280;60657;50.122;14.468;2024-02-15T08:28:26;98674.985212928;;;12.080949111161978;81.31212329289693
71642;BME280;60657;50.122;14.468;2024-02-15T08:31:32;98669.98110660232;;;12.067597467002365;81.38460364690623
71642;BME280;60657;50.122;14.468;2024-02-15T08:34:38;98676.64097033055;;;12.043564507515072;81.33501182574197
71642;BME280;60657;50.122;14.468;2024-02-15T08:37:45;98664.9646689962;;;12.273212787060352;80.98405432211796
71642;BME280;60657;50.122;14.468;2024-02-15T08:40:51;98664.89812148223;;;12.529564354924851;80.25352864881361
71642;BME280;60657;50.122;14.468;2024-02-15T08:43:57;98669.89028717947;;;12.460135805294883;79.72709239337759
71642;BME280;60657;50.122;14.468;2024-02-15T08:47:04;98674.85235224935;;;12.486839093614101;79.33226520180057
71642;BME280;60657;50.122;14.468;2024-02-15T08:50:11;98676.47544324475;;;12.740520332646675;79.12245365072098
71642;BME280;60657;50.122;14.468;2024-02-15T08:53:17;98677.29456799952;;;12.703135728999769;78.95651178759441
71642;BME280;60657;50.122;14.468;2024-02-15T08:56:24;98670.50770245714;;;12.988860914015412;78.24887464713512
71642;BME280;60657;50.122;14.468;2024-02-15T08:59:30;98662.07395409107;;;13.194476234073399;77.50118257419699
71642;BME280;60657;50.122;14.468;2024-02-15T09:02:36;98669.43621018702;;;13.48287174792096;77.05104142824445
71642;BME280;60657;50.122;14.468;2024-02-15T09:05:43;98667.69164150415;;;13.600366216525522;76.46166170748455
71642;BME280;60657;50.122;14.468;2024-02-15T09:08:49;98668.25193123527;;;13.912794689860377;75.68154421301594
71642;BME280;60657;50.122;14.468;2024-02-15T09:11:57;98663.94139752885;;;14.032959487296864;74.93194476234073
71642;BME280;60657;50.122;14.468;2024-02-15T09:15:07;98663.78500530307;;;14.190508888380258;75.32486457618067
71642;BME280;60657;50.122;14.468;2024-02-15T09:18:14;98660.00288249382;;;14.679179064621955;73.64827954528114
71642;BME280;60657;50.122;14.468;2024-02-15T09:21:20;98649.5329511631;;;14.89547570000763;72.13382162203403
71642;BME280;60657;50.122;14.468;2024-02-15T09:24:29;98652.0605189249;;;14.99694819562066;72.20820935378042
71642;BME280;60657;50.122;14.468;2024-02-15T09:27:36;98655.45575905086;;;14.858091096360724;71.9163805600061
71642;BME280;60657;50.122;14.468;2024-02-15T09:30:42;98662.36995017686;;;14.628442816815443;72.6831464103151
71642;BME280;60657;50.122;14.468;2024-02-15T09:33:48;98657.63119449219;;;14.380102235446707;73.06462195773251
71642;BME280;60657;50.122;14.468;2024-02-15T09:36:55;98656.38574509117;;;13.87541008621347;74.44747081712062
71642;BME280;60657;50.122;14.468;2024-02-15T09:40:01;98667.43424261235;;;13.784618905928127;75.05783169298849
71642;BME280;60657;50.122;14.468;2024-02-15T09:43:11;98650.7246505782;;;13.854047455558096;74.79461356527047
71642;BME280;60657;50.122;14.468;2024-02-15T09:46:17;98662.3748255065;;;13.928816662851908;74.72022583352407
71642;BME280;60657;50.122;14.468;2024-02-15T09:49:24;98662.4265951946;;;13.87541008621347;74.68207827878233
71642;BME280;60657;50.122;14.468;2024-02-15T09:52:33;98672.31222231958;;;13.963530937666896;74.48180361638819
71642;BME280;60657;50.122;14.468;2024-02-15T09:55:41;98677.4742247869;;;13.803311207751584;74.91096360723277
71642;BME280;60657;50.122;14.468;2024-02-15T09:58:48;98679.24207316668;;;13.715190356298159;75.34203097581445
71642;BME280;60657;50.122;14.468;2024-02-15T10:01:56;98675.93117776426;;;13.71252002746624;75.4812695506218
71642;BME280;60657;50.122;14.468;2024-02-15T10:05:05;98680.03778838365;;;13.69649805447471;75.49080643930724
71642;BME280;60657;50.122;14.468;2024-02-15T10:08:12;98685.94355546769;;;13.600366216525522;75.78835736629281
71642;BME280;60657;50.122;14.468;2024-02-15T10:11:19;98690.18349749982;;;13.570992599374378;76.12024109254597
71642;BME280;60657;50.122;14.468;2024-02-15T10:14:25;98691.0953973342;;;13.466849774929429;76.35675593194476
71642;BME280;60657;50.122;14.468;2024-02-15T10:17:33;98674.42033887516;;;13.464179446097504;76.58182650492104
71642;BME280;60657;50.122;14.468;2024-02-15T10:20:39;98678.58401455173;;;13.530937666895554;76.22133211261158
71642;BME280;60657;50.122;14.468;2024-02-15T10:23:46;98677.76332813788;;;13.45883878843366;76.29953459983216
71642;BME280;60657;50.122;14.468;2024-02-15T10:26:59;98675.22022988158;;;13.512245365072097;76.22323949034867
71642;BME280;60657;50.122;14.468;2024-02-15T10:30:16;98670.22585855305;;;13.442816815442129;76.40444037537193
71642;BME280;60657;50.122;14.468;2024-02-15T10:33:25;98666.8062708605;;;13.485542076752878;75.83794918745708
71642;BME280;60657;50.122;14.468;2024-02-15T10:36:33;98658.44452272759;;;13.562981612878616;76.01342793926909
71642;BME280;60657;50.122;14.468;2024-02-15T10:39:40;98651.55489615619;;;13.827344167238877;75.11505302510109
71642;BME280;60657;50.122;14.468;2024-02-15T10:42:46;98655.48365972344;;;14.12108033875029;74.3196765087358
71642;BME280;60657;50.122;14.468;2024-02-15T10:45:53;98650.1620513779;;;14.398794537270163;72.96353093766689
71642;BME280;60657;50.122;14.468;2024-02-15T10:49:02;98650.75294852587;;;14.644464789806975;72.26733806363012
71642;BME280;60657;50.122;14.468;2024-02-15T10:52:11;98636.20204624133;;;14.943541618982223;71.2545204852369
71642;BME280;60657;50.122;14.468;2024-02-15T10:55:21;98633.41018330275;;;15.122453650720992;70.34660868238346
71642;BME280;60657;50.122;14.468;2024-02-15T10:58:38;98632.8377388372;;;15.581750209811553;69.87548638132296
71642;BME280;60657;50.122;14.468;2024-02-15T11:01:54;98620.47557012818;;;15.856794079499501;68.55367360952162
71642;BME280;60657;50.122;14.468;2024-02-15T11:05:06;98634.61603974274;;;15.875486381322958;68.34958419165332
71642;BME280;60657;50.122;14.468;2024-02-15T11:08:14;98618.6096765678;;;15.998321507591363;68.02342259861143
71642;BME280;60657;50.122;14.468;2024-02-15T11:11:21;98627.10549719653;;;15.982299534599832;67.92805371175707
71642;BME280;60657;50.122;14.468;2024-02-15T11:14:29;98619.59523900443;;;15.920881971465626;68.01960784313725
71642;BME280;60657;50.122;14.468;2024-02-15T11:17:46;98616.48447277972;;;15.72060730907149;68.08064393072404
71642;BME280;60657;50.122;14.468;2024-02-15T11:20:54;98616.0230314543;;;15.52567330434119;68.79591058213168
71642;BME280;60657;50.122;14.468;2024-02-15T11:24:09;98614.69007347096;;;15.314717326619366;69.72861829556726